createdAt,value
2023-02-08T00:02:25.361Z,42.63
2023-02-08T00:05:17.380Z,38.63
2023-02-08T00:08:07.760Z,40.08
2023-02-08T00:10:57.948Z,31.55
2023-02-08T00:13:48.641Z,30.85
2023-02-08T00:16:38.641Z,34.33
2023-02-08T00:19:28.477Z,26.65
2023-02-08T00:22:18.321Z,29.30
2023-02-08T00:25:08.873Z,30.60
2023-02-08T00:27:59.277Z,30.92
2023-02-08T00:30:49.668Z,28.95
2023-02-08T00:33:39.491Z,28.83
2023-02-08T00:36:29.620Z,30.77
2023-02-08T00:39:21.177Z,29.52
2023-02-08T00:42:11.434Z,26.50
2023-02-08T00:45:03.840Z,29.95
2023-02-08T00:47:54.220Z,36.08
2023-02-08T00:50:44.902Z,34.85
2023-02-08T00:53:40.463Z,33.03
2023-02-08T00:56:30.759Z,33.88
2023-02-08T00:59:22.815Z,34.97
2023-02-08T01:02:13.195Z,31.38
2023-02-08T01:05:03.556Z,35.85
2023-02-08T01:07:53.579Z,32.35
2023-02-08T01:10:44.750Z,36.72
2023-02-08T01:13:34.951Z,39.38
2023-02-08T01:16:27.620Z,39.38
2023-02-08T01:19:17.711Z,37.80
2023-02-08T01:22:07.713Z,36.25
2023-02-08T01:24:57.569Z,38.55
2023-02-08T01:27:47.767Z,39.05
2023-02-08T01:30:38.023Z,43.80
2023-02-08T01:33:28.492Z,36.95
2023-02-08T01:36:19.288Z,38.38
2023-02-08T01:39:11.221Z,39.40
2023-02-08T01:42:01.535Z,42.55
2023-02-08T01:45:21.096Z,36.33
2023-02-08T01:48:17.377Z,33.55
2023-02-08T01:51:20.153Z,30.83
2023-02-08T01:54:12.284Z,33.65
2023-02-08T01:57:02.715Z,37.90
2023-02-08T02:00:01.745Z,31.77
2023-02-08T02:02:55.156Z,33.42
2023-02-08T02:05:51.853Z,31.25
2023-02-08T02:08:49.139Z,34.42
2023-02-08T02:11:39.157Z,30.88
2023-02-08T02:14:29.549Z,29.45
2023-02-08T02:17:20.631Z,35.10
2023-02-08T02:20:29.367Z,31.73
2023-02-08T02:23:34.572Z,46.22
2023-02-08T02:26:53.062Z,39.08
2023-02-08T02:30:15.073Z,31.85
2023-02-08T02:33:23.617Z,32.22
2023-02-08T02:36:22.412Z,32.05
2023-02-08T02:39:43.125Z,29.05
2023-02-08T02:43:19.713Z,27.88
2023-02-08T02:46:37.234Z,28.98
2023-02-08T02:49:37.964Z,31.15
2023-02-08T02:52:45.051Z,28.95
2023-02-08T02:55:41.673Z,34.30
2023-02-08T02:58:33.218Z,30.95
2023-02-08T03:01:26.179Z,37.33
2023-02-08T03:04:39.459Z,32.45
2023-02-08T03:07:52.971Z,40.50
2023-02-08T03:10:52.062Z,37.90
2023-02-08T03:14:06.875Z,34.72
2023-02-08T03:17:03.606Z,44.20
2023-02-08T03:20:04.773Z,32.50
2023-02-08T03:23:19.445Z,39.70
2023-02-08T03:29:16.224Z,32.63
2023-02-08T03:32:14.691Z,39.20
2023-02-08T03:35:24.078Z,35.15
2023-02-08T03:38:29.594Z,38.55
2023-02-08T03:41:25.033Z,38.30
2023-02-08T03:44:22.356Z,39.78
2023-02-08T03:47:20.255Z,37.03
2023-02-08T03:50:12.900Z,35.60
2023-02-08T03:53:04.169Z,40.50
2023-02-08T03:56:01.937Z,48.05
2023-02-08T03:58:58.802Z,37.22
2023-02-08T04:01:56.096Z,38.08
2023-02-08T04:04:50.002Z,36.05
2023-02-08T04:07:40.290Z,38.58
2023-02-08T04:10:30.604Z,38.53
2023-02-08T04:13:20.871Z,41.03
2023-02-08T04:16:12.852Z,39.53
2023-02-08T04:19:02.868Z,37.63
2023-02-08T04:21:52.629Z,39.22
2023-02-08T04:24:42.454Z,35.42
2023-02-08T04:27:32.428Z,43.38
2023-02-08T04:30:24.165Z,39.25
2023-02-08T04:33:14.950Z,43.25
2023-02-08T04:36:05.430Z,40.85
2023-02-08T04:38:55.931Z,39.60
2023-02-08T04:41:45.954Z,39.90
2023-02-08T04:44:35.883Z,36.75
2023-02-08T04:47:25.977Z,38.88
2023-02-08T04:50:16.100Z,39.70
2023-02-08T04:53:06.693Z,36.97
2023-02-08T04:55:56.836Z,39.63
2023-02-08T04:58:48.444Z,36.75
2023-02-08T05:01:38.470Z,37.80
2023-02-08T05:04:28.488Z,42.88
2023-02-08T05:07:18.576Z,38.20
2023-02-08T05:10:08.940Z,45.78
2023-02-08T05:12:58.980Z,37.15
2023-02-08T05:15:48.952Z,37.83
2023-02-08T05:18:39.322Z,37.90
2023-02-08T05:21:29.334Z,42.25
2023-02-08T05:24:19.359Z,40.03
2023-02-08T05:27:09.217Z,42.88
2023-02-08T05:29:59.496Z,31.50
2023-02-08T05:32:49.490Z,43.42
2023-02-08T05:35:39.640Z,44.15
2023-02-08T05:38:29.935Z,34.60
2023-02-08T05:41:20.367Z,33.50
2023-02-08T05:44:10.380Z,39.42
2023-02-08T05:47:00.630Z,39.40
2023-02-08T05:49:50.883Z,38.85
2023-02-08T05:52:40.776Z,36.22
2023-02-08T05:55:31.006Z,33.55
2023-02-08T05:58:21.375Z,37.92
2023-02-08T06:01:13.304Z,33.85
2023-02-08T06:04:03.552Z,38.42
2023-02-08T06:06:53.992Z,37.88
2023-02-08T06:09:43.900Z,35.25
2023-02-08T06:12:33.739Z,35.72
2023-02-08T06:15:23.641Z,35.58
2023-02-08T06:18:14.339Z,35.72
2023-02-08T06:21:05.543Z,37.33
2023-02-08T06:23:55.801Z,35.35
2023-02-08T06:26:47.301Z,43.05
2023-02-08T06:29:37.527Z,37.28
2023-02-08T06:32:27.555Z,37.80
2023-02-08T06:35:17.682Z,33.75
2023-02-08T06:38:07.990Z,40.95
2023-02-08T06:40:58.384Z,36.38
2023-02-08T06:43:48.575Z,38.22
2023-02-08T06:46:38.447Z,33.70
2023-02-08T06:49:28.229Z,46.38
2023-02-08T06:52:19.407Z,32.58
2023-02-08T06:55:09.466Z,37.92
2023-02-08T06:57:59.355Z,41.83
2023-02-08T07:00:49.141Z,36.45
2023-02-08T07:03:39.699Z,39.40
2023-02-08T07:06:30.028Z,39.05
2023-02-08T07:09:20.128Z,38.30
2023-02-08T07:12:10.759Z,47.35
2023-02-08T07:15:00.788Z,36.33
2023-02-08T07:17:50.719Z,39.55
2023-02-08T07:20:41.013Z,44.10
2023-02-08T07:23:31.718Z,36.72
2023-02-08T07:26:22.114Z,36.40
2023-02-08T07:29:12.040Z,40.13
2023-02-08T07:32:04.369Z,41.22
2023-02-08T07:34:54.709Z,44.70
2023-02-08T07:37:44.697Z,41.50
2023-02-08T07:40:34.608Z,42.53
2023-02-08T07:43:26.944Z,40.35
2023-02-08T07:46:22.431Z,43.05
2023-02-08T07:49:12.773Z,44.17
2023-02-08T07:52:04.015Z,42.85
2023-02-08T07:54:53.843Z,42.15
2023-02-08T07:57:44.754Z,43.47
2023-02-08T08:00:34.803Z,43.70
2023-02-08T08:03:24.841Z,47.65
2023-02-08T08:06:15.102Z,48.63
2023-02-08T08:09:05.780Z,45.10
2023-02-08T08:11:55.893Z,43.97
2023-02-08T08:14:46.338Z,45.80
2023-02-08T08:17:36.670Z,49.28
2023-02-08T08:20:27.186Z,46.33
2023-02-08T08:23:17.291Z,51.33
2023-02-08T08:26:13.910Z,50.08
2023-02-08T08:29:04.252Z,49.35
2023-02-08T08:31:55.862Z,43.70
2023-02-08T08:34:46.210Z,42.70
2023-02-08T08:37:36.815Z,50.50
2023-02-08T08:40:26.862Z,43.28
2023-02-08T08:43:16.702Z,38.00
2023-02-08T08:46:07.910Z,41.70
2023-02-08T08:48:58.009Z,40.40
2023-02-08T08:51:47.990Z,34.42
2023-02-08T08:54:38.895Z,34.03
2023-02-08T08:57:29.170Z,32.63
2023-02-08T09:00:19.338Z,37.70
2023-02-08T09:03:09.240Z,36.45
2023-02-08T09:05:59.538Z,32.45
2023-02-08T09:08:51.710Z,37.38
2023-02-08T09:11:41.779Z,39.95
2023-02-08T09:14:31.843Z,36.92
2023-02-08T09:17:21.755Z,39.85
2023-02-08T09:20:11.828Z,31.85
2023-02-08T09:23:01.800Z,29.40
2023-02-08T09:25:52.067Z,32.13
2023-02-08T09:28:42.453Z,33.58
2023-02-08T09:31:37.727Z,36.80
2023-02-08T09:34:28.208Z,32.47
2023-02-08T09:37:18.436Z,32.03
2023-02-08T09:40:21.264Z,30.38
2023-02-08T09:43:24.446Z,32.88
2023-02-08T09:46:24.175Z,31.85
2023-02-08T09:49:22.364Z,33.65
2023-02-08T09:52:21.037Z,30.55
2023-02-08T09:55:21.497Z,28.75
2023-02-08T09:58:35.127Z,27.08
2023-02-08T10:01:28.653Z,33.95
2023-02-08T10:04:31.730Z,27.27
2023-02-08T10:07:22.059Z,31.80
2023-02-08T10:10:19.096Z,30.05
2023-02-08T10:13:41.164Z,27.38
2023-02-08T10:16:58.404Z,27.80
2023-02-08T10:20:17.349Z,28.20
2023-02-08T10:23:22.308Z,25.38
2023-02-08T10:26:19.375Z,30.50
2023-02-08T10:29:24.848Z,26.65
2023-02-08T10:32:39.676Z,27.00
2023-02-08T10:35:41.481Z,29.05
2023-02-08T10:38:45.500Z,30.67
2023-02-08T10:41:36.972Z,24.80
2023-02-08T10:44:28.148Z,23.98
2023-02-08T10:47:27.392Z,30.52
2023-02-08T10:50:35.585Z,23.23
2023-02-08T10:53:25.514Z,23.60
2023-02-08T10:56:46.668Z,35.35
2023-02-08T10:59:49.607Z,22.85
2023-02-08T11:02:42.548Z,25.30
2023-02-08T11:05:37.135Z,22.67
2023-02-08T11:08:29.420Z,24.20
2023-02-08T11:11:19.929Z,25.45
2023-02-08T11:14:17.173Z,21.38
2023-02-08T11:17:28.196Z,27.65
2023-02-08T11:20:29.263Z,24.35
2023-02-08T11:23:26.765Z,20.98
2023-02-08T11:26:25.094Z,21.58
2023-02-08T11:29:18.358Z,24.83
2023-02-08T11:32:19.986Z,22.02
2023-02-08T11:35:22.750Z,18.92
2023-02-08T11:38:19.480Z,20.02
2023-02-08T11:41:19.090Z,21.65
2023-02-08T11:44:19.971Z,22.77
2023-02-08T11:47:16.315Z,24.48
2023-02-08T11:50:08.201Z,23.20
2023-02-08T11:53:04.921Z,21.73
2023-02-08T11:56:09.699Z,21.63
2023-02-08T11:59:12.368Z,17.88
2023-02-08T12:02:29.321Z,17.92
2023-02-08T12:05:28.843Z,18.92
2023-02-08T12:08:42.285Z,18.88
2023-02-08T12:11:45.872Z,15.60
2023-02-08T12:14:59.334Z,16.50
2023-02-08T12:18:22.709Z,16.38
2023-02-08T12:21:26.994Z,17.35
2023-02-08T12:24:28.220Z,16.40
2023-02-08T12:27:27.457Z,17.13
2023-02-08T12:30:37.006Z,18.70
2023-02-08T12:33:37.615Z,17.50
2023-02-08T12:37:15.012Z,13.00
2023-02-08T12:40:38.563Z,15.63
2023-02-08T12:44:07.707Z,12.90
2023-02-08T12:47:16.124Z,9.95
2023-02-08T12:50:24.405Z,13.20
2023-02-08T12:53:31.080Z,13.30
2023-02-08T12:56:26.434Z,13.88
2023-02-08T12:59:26.554Z,11.82
2023-02-08T13:02:31.674Z,13.77
2023-02-08T13:05:23.346Z,12.85
2023-02-08T13:08:36.081Z,15.10
2023-02-08T13:11:53.595Z,12.98
2023-02-08T13:14:50.828Z,14.93
2023-02-08T13:17:55.304Z,11.55
2023-02-08T13:20:50.541Z,13.45
2023-02-08T13:23:51.954Z,12.38
2023-02-08T13:26:42.905Z,9.23
2023-02-08T13:29:34.209Z,15.00
2023-02-08T13:32:38.567Z,11.02
2023-02-08T13:35:30.439Z,14.77
2023-02-08T13:38:35.546Z,11.60
2023-02-08T13:41:27.421Z,12.93
2023-02-08T13:44:24.453Z,13.02
2023-02-08T13:47:30.186Z,11.20
2023-02-08T13:50:42.167Z,13.27
2023-02-08T13:53:55.830Z,12.57
2023-02-08T13:56:48.714Z,10.57
2023-02-08T13:59:41.817Z,13.10
2023-02-08T14:02:32.396Z,12.90
2023-02-08T14:05:50.352Z,12.48
2023-02-08T14:08:46.935Z,12.55
2023-02-08T14:12:05.694Z,13.10
2023-02-08T14:15:15.598Z,11.13
2023-02-08T14:18:22.674Z,10.45
2023-02-08T14:21:28.234Z,14.75
2023-02-08T14:24:26.406Z,14.35
2023-02-08T14:27:22.600Z,13.73
2023-02-08T14:30:16.132Z,13.80
2023-02-08T14:33:07.411Z,12.05
2023-02-08T14:36:01.724Z,11.63
2023-02-08T14:39:07.634Z,16.42
2023-02-08T14:42:01.149Z,12.80
2023-02-08T14:44:57.874Z,15.27
2023-02-08T14:47:47.697Z,16.40
2023-02-08T14:50:41.379Z,14.00
2023-02-08T14:56:57.253Z,19.30
2023-02-08T14:59:48.148Z,15.85
2023-02-08T15:02:41.834Z,15.73
2023-02-08T15:05:40.504Z,13.25
2023-02-08T15:08:30.850Z,15.00
2023-02-08T15:11:27.831Z,14.88
2023-02-08T15:14:21.274Z,14.35
2023-02-08T15:17:25.143Z,16.80
2023-02-08T15:20:30.591Z,14.57
2023-02-08T15:23:24.698Z,15.13
2023-02-08T15:29:44.584Z,18.15
2023-02-08T15:32:35.461Z,16.77
2023-02-08T15:35:26.340Z,15.85
2023-02-08T15:38:20.529Z,20.17
2023-02-08T15:41:13.540Z,24.10
2023-02-08T15:44:24.914Z,17.95
2023-02-08T15:47:32.613Z,20.00
2023-02-08T15:50:23.975Z,17.63
2023-02-08T15:53:15.870Z,19.30
2023-02-08T15:56:07.501Z,18.35
2023-02-08T15:59:00.401Z,17.38
2023-02-08T16:01:51.732Z,19.85
2023-02-08T16:04:46.068Z,19.27
2023-02-08T16:07:48.196Z,16.85
2023-02-08T16:10:46.241Z,19.23
2023-02-08T16:13:38.851Z,24.55
2023-02-08T16:16:35.291Z,17.50
2023-02-08T16:19:30.341Z,18.05
2023-02-08T16:22:32.704Z,19.48
2023-02-08T16:25:24.683Z,19.58
2023-02-08T16:28:28.081Z,19.30
2023-02-08T16:31:23.070Z,17.85
2023-02-08T16:34:18.448Z,19.85
2023-02-08T16:37:23.141Z,21.45
2023-02-08T16:40:44.965Z,20.27
2023-02-08T16:43:37.649Z,20.70
2023-02-08T16:46:28.706Z,24.08
2023-02-08T16:49:19.570Z,20.80
2023-02-08T16:52:10.904Z,19.67
2023-02-08T16:55:01.412Z,26.23
2023-02-08T16:57:54.227Z,20.42
2023-02-08T17:00:45.424Z,18.65
2023-02-08T17:03:38.296Z,21.15
2023-02-08T17:06:30.896Z,21.92
2023-02-08T17:09:20.814Z,28.45
2023-02-08T17:12:21.785Z,27.63
2023-02-08T17:15:12.571Z,22.70
2023-02-08T17:18:02.944Z,27.95
2023-02-08T17:20:59.299Z,24.98
2023-02-08T17:23:50.110Z,26.80
2023-02-08T17:26:43.771Z,24.02
2023-02-08T17:29:33.663Z,23.67
2023-02-08T17:32:23.513Z,24.23
2023-02-08T17:35:17.207Z,26.35
2023-02-08T17:38:07.206Z,24.50
2023-02-08T17:40:57.082Z,25.30
2023-02-08T17:43:52.176Z,23.90
2023-02-08T17:46:42.477Z,27.58
2023-02-08T17:49:32.530Z,22.58
2023-02-08T17:52:23.009Z,30.77
2023-02-08T17:55:14.936Z,30.73
2023-02-08T17:58:05.458Z,24.50
2023-02-08T18:00:56.087Z,27.98
2023-02-08T18:03:47.662Z,29.02
2023-02-08T18:06:37.826Z,28.02
2023-02-08T18:09:28.366Z,28.67
2023-02-08T18:12:18.383Z,22.95
2023-02-08T18:15:12.011Z,26.70
2023-02-08T18:18:02.316Z,29.60
2023-02-08T18:20:52.098Z,28.25
2023-02-08T18:23:42.966Z,28.52
2023-02-08T18:26:34.432Z,28.45
2023-02-08T18:29:25.709Z,33.28
2023-02-08T18:32:16.044Z,29.05
2023-02-08T18:35:07.874Z,27.23
2023-02-08T18:37:58.131Z,26.35
2023-02-08T18:40:48.615Z,29.15
2023-02-08T18:43:40.719Z,30.23
2023-02-08T18:46:31.093Z,29.98
2023-02-08T18:49:21.183Z,29.20
2023-02-08T18:52:13.454Z,25.95
2023-02-08T18:55:04.207Z,28.67
2023-02-08T18:57:54.342Z,26.83
2023-02-08T19:00:44.315Z,29.15
2023-02-08T19:03:35.826Z,27.70
2023-02-08T19:06:28.578Z,31.83
2023-02-08T19:09:18.955Z,31.95
2023-02-08T19:12:09.142Z,32.22
2023-02-08T19:14:59.529Z,25.50
2023-02-08T19:17:49.484Z,32.50
2023-02-08T19:20:39.472Z,30.73
2023-02-08T19:23:30.008Z,26.45
2023-02-08T19:26:39.970Z,25.10
2023-02-08T19:29:30.304Z,27.70
2023-02-08T19:32:20.532Z,30.80
2023-02-08T19:35:11.502Z,27.33
2023-02-08T19:38:01.794Z,32.55
2023-02-08T19:40:55.181Z,33.05
2023-02-08T19:43:46.757Z,26.98
2023-02-08T19:46:40.154Z,27.17
2023-02-08T19:49:30.146Z,30.88
2023-02-08T19:52:20.904Z,30.38
2023-02-08T19:55:11.046Z,26.40
2023-02-08T19:58:00.821Z,27.00
2023-02-08T20:00:51.600Z,31.85
2023-02-08T20:03:41.955Z,31.83
2023-02-08T20:06:35.471Z,30.55
2023-02-08T20:09:25.504Z,19.48
2023-02-08T20:12:15.961Z,28.88
2023-02-08T20:15:06.433Z,33.67
2023-02-08T20:17:57.881Z,31.60
2023-02-08T20:21:00.068Z,31.77
2023-02-08T20:23:50.802Z,30.23
2023-02-08T20:26:42.785Z,28.23
2023-02-08T20:29:33.247Z,30.90
2023-02-08T20:32:23.336Z,29.80
2023-02-08T20:35:17.073Z,31.48
2023-02-08T20:38:07.064Z,37.88
2023-02-08T20:41:05.101Z,34.95
2023-02-08T20:43:56.057Z,33.47
2023-02-08T20:46:46.656Z,43.08
2023-02-08T20:49:38.887Z,43.22
2023-02-08T20:52:29.158Z,45.13
2023-02-08T20:55:19.299Z,34.33
2023-02-08T20:58:09.626Z,30.77
2023-02-08T21:00:59.784Z,36.08
2023-02-08T21:03:52.207Z,38.83
2023-02-08T21:06:44.578Z,31.80
2023-02-08T21:09:35.122Z,37.72
2023-02-08T21:12:25.865Z,35.22
2023-02-08T21:15:15.781Z,29.83
2023-02-08T21:18:06.181Z,34.53
2023-02-08T21:20:56.399Z,38.30
2023-02-08T21:23:47.017Z,41.40
2023-02-08T21:26:37.516Z,39.78
2023-02-08T21:29:29.272Z,37.42
2023-02-08T21:32:19.739Z,42.17
2023-02-08T21:35:10.110Z,38.80
2023-02-08T21:38:00.095Z,42.30
2023-02-08T21:40:50.302Z,42.25
2023-02-08T21:43:40.822Z,39.25
2023-02-08T21:46:32.294Z,45.88
2023-02-08T21:49:41.083Z,41.88
2023-02-08T21:52:50.154Z,53.08
2023-02-08T21:55:45.676Z,45.17
2023-02-08T21:58:36.082Z,48.63
2023-02-08T22:01:25.900Z,57.85
2023-02-08T22:04:16.138Z,65.38
2023-02-08T22:07:06.119Z,46.45
2023-02-08T22:09:57.796Z,47.63
2023-02-08T22:12:48.572Z,45.15
2023-02-08T22:15:38.872Z,47.90
2023-02-08T22:18:29.111Z,49.72
2023-02-08T22:21:19.090Z,49.55
2023-02-08T22:24:08.999Z,48.55
2023-02-08T22:26:58.934Z,45.67
2023-02-08T22:29:49.107Z,46.00
2023-02-08T22:32:43.341Z,42.08
2023-02-08T22:35:33.494Z,38.75
2023-02-08T22:38:24.369Z,43.25
2023-02-08T22:41:15.743Z,45.53
2023-02-08T22:44:06.154Z,48.22
2023-02-08T22:46:57.464Z,50.53
2023-02-08T22:49:48.010Z,52.35
2023-02-08T22:52:38.329Z,42.78
2023-02-08T22:55:28.829Z,50.40
2023-02-08T22:58:19.054Z,42.60
2023-02-08T23:01:17.093Z,47.67
2023-02-08T23:04:07.234Z,41.40
2023-02-08T23:06:58.790Z,47.55
2023-02-08T23:09:48.944Z,43.92
2023-02-08T23:12:39.542Z,40.10
2023-02-08T23:15:30.224Z,37.55
2023-02-08T23:18:21.502Z,39.47
2023-02-08T23:21:16.437Z,39.60
2023-02-08T23:24:06.868Z,34.60
2023-02-08T23:26:56.980Z,37.42
2023-02-08T23:29:47.268Z,35.38
2023-02-08T23:32:37.718Z,43.92
2023-02-08T23:35:27.652Z,33.92
2023-02-08T23:38:17.657Z,35.72
2023-02-08T23:41:14.092Z,43.17
2023-02-08T23:44:04.119Z,40.47
2023-02-08T23:46:54.407Z,33.45
2023-02-08T23:49:44.543Z,31.15
2023-02-08T23:52:35.715Z,38.92
2023-02-08T23:55:25.893Z,37.75
2023-02-08T23:58:16.087Z,36.60
